Time;durP1;ratioP1;P1;durP2;ratioP2;P2;SDS_P1;SDS_P2;PMS_P1;PMS_P2;Temp;Humidity;BMP_temperature;BMP_pressure;BME280_temperature;BME280_humidity;BME280_pressure;Samples;Min_cycle;Max_cycle;Signal;HPM_P1;HPM_P2
2021/07/24 00:01:56;;;;;;;;;0.25;0.25;;;;;25.03;45.98;100306.22;6148445;23;45355;-76
2021/07/24 00:04:22;;;;;;;;;0.00;0.00;;;;;25.19;45.73;100310.59;6148281;23;48777;-77
2021/07/24 00:06:47;;;;;;;;;1.50;0.00;;;;;25.11;45.54;100283.59;6148440;23;45385;-77
2021/07/24 00:09:13;;;;;;;;;1.00;1.00;;;;;25.26;45.78;100303.09;6146594;23;47015;-77
2021/07/24 00:11:39;;;;;;;;;0.25;0.00;;;;;25.18;45.10;100293.75;6148138;23;45331;-76
2021/07/24 00:14:04;;;;;;;;;2.00;0.75;;;;;25.22;45.65;100297.13;6148285;23;45388;-76
2021/07/24 00:16:29;;;;;;;;;1.00;1.00;;;;;25.21;45.21;100294.53;6147965;23;51270;-77
2021/07/24 00:18:55;;;;;;;;;0.00;0.00;;;;;25.33;45.59;100315.13;6147617;22;45329;-77
2021/07/24 00:21:20;;;;;;;;;0.25;0.25;;;;;25.29;45.07;100293.13;6148158;23;45429;-77
2021/07/24 00:23:45;;;;;;;;;0.25;0.25;;;;;25.36;44.83;100288.25;6146994;23;45375;-77
2021/07/24 00:26:13;;;;;;;;;0.25;0.00;;;;;25.29;44.55;100260.28;6149120;23;45366;-77
2021/07/24 00:28:40;;;;;;;;;1.00;0.00;;;;;25.46;44.11;100288.59;6147933;23;45809;-79
2021/07/24 00:31:05;;;;;;;;;0.00;0.00;;;;;25.48;44.00;100293.81;6148686;23;45186;-77
2021/07/24 00:33:30;;;;;;;;;0.00;0.00;;;;;25.50;43.95;100297.22;6148296;23;46099;-77
2021/07/24 00:35:56;;;;;;;;;2.00;0.50;;;;;25.51;43.88;100297.13;6148865;23;45168;-76
2021/07/24 00:38:22;;;;;;;;;0.00;0.00;;;;;25.41;43.88;100274.66;6148275;23;46182;-77
2021/07/24 00:40:53;;;;;;;;;0.00;0.00;;;;;25.56;44.08;100296.84;6148281;23;45374;-77
2021/07/24 00:43:20;;;;;;;;;3.00;0.00;;;;;25.53;43.73;100305.03;6148054;23;45317;-80
2021/07/24 00:45:47;;;;;;;;;1.25;0.00;;;;;25.51;43.87;100304.28;6148669;23;45284;-79
2021/07/24 00:48:20;;;;;;;;;0.00;0.00;;;;;25.15;43.69;100240.69;6148104;23;45265;-77
2021/07/24 00:50:57;;;;;;;;;0.00;0.00;;;;;25.41;43.33;100285.31;6146097;23;45354;-77
2021/07/24 00:53:24;;;;;;;;;0.00;0.00;;;;;25.43;43.51;100299.41;6147782;23;45367;-77
2021/07/24 00:55:51;;;;;;;;;1.50;0.50;;;;;25.48;43.43;100307.97;6148455;23;45257;-78
2021/07/24 00:58:31;;;;;;;;;0.00;0.00;;;;;25.53;43.60;100319.22;6147268;23;46368;-77
2021/07/24 01:00:57;;;;;;;;;0.00;0.00;;;;;25.55;43.65;100319.97;6147471;23;45339;-77
2021/07/24 01:03:23;;;;;;;;;0.00;0.00;;;;;25.55;43.57;100330.63;6148412;23;45288;-77
2021/07/24 01:05:51;;;;;;;;;0.00;0.00;;;;;25.54;43.57;100331.59;6148640;23;45284;-78
2021/07/24 01:08:18;;;;;;;;;1.75;0.00;;;;;25.47;43.61;100306.28;6148088;23;46227;-76
2021/07/24 01:10:44;;;;;;;;;0.00;0.00;;;;;25.50;43.59;100294.56;6148330;23;45263;-76
2021/07/24 01:13:09;;;;;;;;;1.00;0.00;;;;;25.59;43.56;100298.47;6147900;23;45316;-78
2021/07/24 01:15:35;;;;;;;;;0.00;0.00;;;;;25.59;43.54;100291.38;6148017;23;45215;-77
2021/07/24 01:18:00;;;;;;;;;0.50;0.00;;;;;25.55;43.39;100276.50;6147420;23;46056;-77
2021/07/24 01:20:27;;;;;;;;;1.25;0.00;;;;;25.47;43.24;100263.66;6147912;23;45299;-80
2021/07/24 01:22:54;;;;;;;;;0.00;0.00;;;;;25.54;43.99;100270.28;6148393;23;45358;-77
2021/07/24 01:25:19;;;;;;;;;1.00;0.00;;;;;25.55;43.79;100282.66;6147745;23;45383;-77
2021/07/24 01:27:45;;;;;;;;;0.75;0.00;;;;;25.35;43.96;100245.75;6147204;23;52548;-78
2021/07/24 01:30:13;;;;;;;;;0.00;0.00;;;;;25.49;43.88;100258.22;6147823;23;45281;-77
2021/07/24 01:32:39;;;;;;;;;0.00;0.00;;;;;25.50;44.08;100295.44;6147921;23;45284;-78
2021/07/24 01:35:05;;;;;;;;;0.00;0.00;;;;;25.39;44.36;100289.91;6148440;23;45312;-77
2021/07/24 01:37:30;;;;;;;;;0.00;0.00;;;;;25.39;44.65;100309.41;6147949;23;46453;-77
2021/07/24 01:39:55;;;;;;;;;0.75;0.00;;;;;25.32;44.83;100296.56;6146894;23;51032;-77
2021/07/24 01:42:20;;;;;;;;;0.50;0.50;;;;;25.22;45.15;100321.09;6147314;23;50747;-77
2021/07/24 01:44:46;;;;;;;;;0.75;0.75;;;;;24.97;46.22;100293.25;6147606;23;50690;-78
2021/07/24 01:47:11;;;;;;;;;1.00;1.00;;;;;25.02;47.97;100320.47;6147967;23;46098;-78
2021/07/24 01:52:48;;;;;;;;;0.00;0.00;;;;;24.72;50.07;100329.28;6148140;23;45241;-78
2021/07/24 01:55:35;;;;;;;;;0.25;0.00;;;;;24.57;51.54;100349.63;6147624;23;45281;-77
2021/07/24 01:58:02;;;;;;;;;0.00;0.00;;;;;24.44;52.48;100345.94;6147678;23;45214;-77
2021/07/24 02:00:29;;;;;;;;;0.00;0.00;;;;;24.29;52.58;100343.22;6147836;23;45378;-77
2021/07/24 02:02:56;;;;;;;;;1.00;0.75;;;;;24.17;52.49;100316.34;6147825;23;45252;-77
2021/07/24 02:05:48;;;;;;;;;0.00;0.00;;;;;24.11;52.75;100323.78;6148281;23;45300;-78
2021/07/24 02:08:23;;;;;;;;;0.00;0.00;;;;;24.05;53.34;100338.25;6148140;22;45271;-77
2021/07/24 02:10:50;;;;;;;;;0.00;0.00;;;;;23.99;54.31;100328.81;6147410;23;45320;-77
2021/07/24 02:13:17;;;;;;;;;1.50;0.00;;;;;23.83;55.07;100323.50;6147980;23;45394;-77
2021/07/24 02:15:43;;;;;;;;;0.00;0.00;;;;;23.76;54.31;100325.59;6145973;23;45357;-77
2021/07/24 02:18:10;;;;;;;;;0.00;0.00;;;;;23.73;54.59;100330.25;6147345;23;45745;-79
2021/07/24 02:20:36;;;;;;;;;0.00;0.00;;;;;23.77;55.33;100348.56;6147729;23;45386;-77
2021/07/24 02:23:02;;;;;;;;;0.50;0.50;;;;;23.63;55.43;100335.16;6148022;23;45399;-77
2021/07/24 02:25:27;;;;;;;;;0.00;0.00;;;;;23.57;55.21;100324.84;6145804;23;45479;-80
2021/07/24 02:27:52;;;;;;;;;1.00;1.00;;;;;23.69;55.98;100353.44;6146713;23;49700;-77
2021/07/24 02:30:18;;;;;;;;;0.75;0.00;;;;;23.66;56.03;100348.28;6147822;23;45204;-77
2021/07/24 02:32:44;;;;;;;;;0.00;0.00;;;;;23.50;56.57;100321.69;6149196;23;45291;-77
2021/07/24 02:35:10;;;;;;;;;0.00;0.00;;;;;23.61;56.49;100353.00;6150046;23;45292;-78
2021/07/24 02:37:36;;;;;;;;;1.00;0.00;;;;;23.61;55.39;100363.63;6149733;23;45361;-76
2021/07/24 02:40:03;;;;;;;;;0.00;0.00;;;;;23.61;55.41;100361.81;6148713;23;45360;-76
2021/07/24 02:42:28;;;;;;;;;0.00;0.00;;;;;23.63;55.31;100359.06;6149246;22;45292;-78
2021/07/24 02:44:53;;;;;;;;;0.00;0.00;;;;;23.67;55.38;100369.47;6149919;23;45279;-76
2021/07/24 02:47:19;;;;;;;;;0.00;0.00;;;;;23.76;55.45;100356.63;6148791;23;57633;-76
2021/07/24 02:49:45;;;;;;;;;0.00;0.00;;;;;23.66;54.70;100343.84;6149568;23;45284;-77
2021/07/24 02:52:10;;;;;;;;;0.00;0.00;;;;;23.65;54.93;100360.69;6149354;23;45186;-76
2021/07/24 02:54:36;;;;;;;;;0.00;0.00;;;;;23.64;55.32;100361.66;6149187;23;45360;-76
2021/07/24 02:57:01;;;;;;;;;0.00;0.00;;;;;23.58;56.12;100347.84;6149598;23;45255;-76
2021/07/24 02:59:27;;;;;;;;;0.00;0.00;;;;;23.56;54.92;100336.44;6149364;23;45277;-76
2021/07/24 03:01:52;;;;;;;;;0.00;0.00;;;;;23.48;55.28;100327.06;6149722;23;45637;-76
2021/07/24 03:04:17;;;;;;;;;0.00;0.00;;;;;23.48;55.23;100342.13;6149853;23;45315;-76
2021/07/24 03:06:43;;;;;;;;;0.25;0.00;;;;;23.46;54.63;100344.03;6148975;23;46119;-76
2021/07/24 03:09:09;;;;;;;;;1.75;0.00;;;;;23.42;54.95;100330.03;6148036;23;55316;-77
2021/07/24 03:11:34;;;;;;;;;0.00;0.00;;;;;23.36;55.17;100346.25;6149381;23;45312;-76
2021/07/24 03:14:01;;;;;;;;;0.00;0.00;;;;;23.29;54.27;100335.97;6149278;23;45554;-78
2021/07/24 03:16:26;;;;;;;;;0.00;0.00;;;;;23.35;54.30;100352.50;6148874;23;45343;-76
2021/07/24 03:18:52;;;;;;;;;1.50;0.00;;;;;23.35;54.10;100371.09;6146744;23;45387;-77
2021/07/24 03:21:18;;;;;;;;;1.25;0.00;;;;;23.27;54.11;100355.56;6148363;23;45277;-77
2021/07/24 03:23:43;;;;;;;;;0.00;0.00;;;;;23.23;54.23;100370.78;6149408;23;45393;-76
2021/07/24 03:26:11;;;;;;;;;0.00;0.00;;;;;23.33;54.00;100392.41;6148967;23;48100;-77
2021/07/24 03:28:37;;;;;;;;;0.00;0.00;;;;;23.12;54.02;100365.19;6148854;23;45315;-76
2021/07/24 03:31:03;;;;;;;;;0.00;0.00;;;;;23.19;54.32;100390.47;6149273;23;45257;-76
2021/07/24 03:33:28;;;;;;;;;0.00;0.00;;;;;23.16;53.84;100386.16;6149694;23;45265;-76
2021/07/24 03:35:53;;;;;;;;;0.00;0.00;;;;;22.94;54.21;100361.63;6148314;23;45340;-76
2021/07/24 03:38:20;;;;;;;;;0.00;0.00;;;;;23.01;54.67;100390.47;6149055;23;45214;-77
2021/07/24 03:40:46;;;;;;;;;0.00;0.00;;;;;22.95;54.30;100390.75;6148762;23;45412;-76
2021/07/24 03:43:11;;;;;;;;;0.00;0.00;;;;;22.86;54.22;100400.03;6149148;23;45360;-76
2021/07/24 03:45:36;;;;;;;;;0.00;0.00;;;;;22.80;54.89;100407.41;6149078;23;46048;-76
2021/07/24 03:48:02;;;;;;;;;0.00;0.00;;;;;22.78;54.81;100412.78;6148928;23;45333;-76
2021/07/24 03:50:28;;;;;;;;;0.00;0.00;;;;;22.69;55.10;100414.09;6148724;23;45402;-77
2021/07/24 03:52:53;;;;;;;;;0.00;0.00;;;;;22.76;55.01;100427.94;6149632;23;45266;-76
2021/07/24 03:55:20;;;;;;;;;0.00;0.00;;;;;22.81;54.66;100441.00;6146731;23;48262;-76
2021/07/24 03:57:45;;;;;;;;;0.75;0.25;;;;;22.74;55.48;100432.44;6148504;23;45450;-77
2021/07/24 04:00:11;;;;;;;;;1.00;1.00;;;;;22.74;55.00;100440.41;6148531;23;45677;-77
2021/07/24 04:02:39;;;;;;;;;0.00;0.00;;;;;22.72;54.93;100448.44;6148751;23;45367;-78
2021/07/24 04:05:05;;;;;;;;;0.00;0.00;;;;;22.56;55.12;100452.69;6148776;23;45291;-77
2021/07/24 04:07:30;;;;;;;;;0.00;0.00;;;;;22.56;54.88;100473.91;6148672;23;45289;-76
2021/07/24 04:09:56;;;;;;;;;0.00;0.00;;;;;22.53;55.14;100481.09;6148717;23;45370;-76
2021/07/24 04:12:21;;;;;;;;;1.00;0.00;;;;;22.48;55.41;100472.47;6148765;23;45348;-77
2021/07/24 04:14:47;;;;;;;;;0.00;0.00;;;;;22.43;54.42;100474.50;6148520;23;46530;-77
2021/07/24 04:17:12;;;;;;;;;0.00;0.00;;;;;22.42;54.80;100478.09;6146737;23;45274;-76
2021/07/24 04:19:37;;;;;;;;;0.00;0.00;;;;;22.36;54.47;100483.66;6148068;23;50247;-76
2021/07/24 04:22:03;;;;;;;;;0.00;0.00;;;;;22.36;54.70;100499.56;6148825;23;45389;-79
2021/07/24 04:24:28;;;;;;;;;0.75;0.25;;;;;22.40;54.10;100486.09;6148479;23;45382;-78
2021/07/24 04:26:54;;;;;;;;;1.00;0.00;;;;;22.28;54.25;100468.09;6148613;23;45349;-76
2021/07/24 04:29:21;;;;;;;;;0.00;0.00;;;;;22.38;54.31;100490.59;6148138;23;45403;-76
2021/07/24 04:31:47;;;;;;;;;0.00;0.00;;;;;;;;6148993;23;45300;-77
2021/07/24 04:34:12;;;;;;;;;0.25;0.25;;;;;22.53;54.24;100485.53;6147952;23;45630;-77
2021/07/24 04:36:38;;;;;;;;;0.00;0.00;;;;;22.36;54.93;100447.38;6147408;23;65379;-76
2021/07/24 04:39:03;;;;;;;;;0.00;0.00;;;;;22.34;55.23;100490.81;6147856;23;45343;-76
2021/07/24 04:41:29;;;;;;;;;0.00;0.00;;;;;22.19;55.65;100482.63;6148174;23;45296;-77
2021/07/24 04:43:54;;;;;;;;;0.00;0.00;;;;;22.18;55.88;100488.84;6148142;23;45279;-78
2021/07/24 04:46:19;;;;;;;;;0.00;0.00;;;;;22.17;55.31;100489.78;6147594;23;46158;-77
2021/07/24 04:48:45;;;;;;;;;0.00;0.00;;;;;22.10;55.64;100480.38;6148512;23;45325;-76
2021/07/24 04:51:14;;;;;;;;;0.00;0.00;;;;;22.20;55.98;100491.44;6148347;23;45339;-76
2021/07/24 04:53:41;;;;;;;;;0.00;0.00;;;;;22.27;55.50;100501.69;6147897;23;45290;-79
2021/07/24 04:56:07;;;;;;;;;0.00;0.00;;;;;22.32;54.93;100498.00;6148089;23;45314;-77
2021/07/24 04:58:34;;;;;;;;;0.75;0.00;;;;;22.22;56.01;100503.69;6148543;23;45165;-77
2021/07/24 05:00:59;;;;;;;;;0.00;0.00;;;;;22.03;55.70;100508.94;6148225;23;45418;-77
2021/07/24 05:03:24;;;;;;;;;0.50;0.00;;;;;21.87;56.67;100498.16;6146926;23;64407;-77
2021/07/24 05:05:53;;;;;;;;;0.00;0.00;;;;;21.79;57.08;100524.94;6148347;23;45586;-77
2021/07/24 05:08:19;;;;;;;;;0.25;0.25;;;;;21.72;56.71;100507.56;6148576;23;45405;-76
2021/07/24 05:10:44;;;;;;;;;0.00;0.00;;;;;21.79;57.47;100530.25;6148013;23;45332;-77
2021/07/24 05:13:09;;;;;;;;;0.75;0.00;;;;;21.82;57.11;100535.44;6147751;23;45467;-78
2021/07/24 05:15:37;;;;;;;;;0.75;0.00;;;;;21.85;57.10;100534.44;6148071;23;45312;-77
2021/07/24 05:18:03;;;;;;;;;0.25;0.00;;;;;21.87;57.21;100522.84;6147329;23;45278;-77
2021/07/24 05:20:29;;;;;;;;;0.00;0.00;;;;;21.84;57.27;100533.56;6148408;23;45277;-78
2021/07/24 05:22:55;;;;;;;;;0.00;0.00;;;;;21.75;57.11;100513.63;6148305;23;45547;-76
2021/07/24 05:25:20;;;;;;;;;0.00;0.00;;;;;21.85;57.29;100537.06;6147255;23;45381;-76
2021/07/24 05:27:46;;;;;;;;;0.00;0.00;;;;;21.84;57.03;100540.66;6147758;23;45279;-76
2021/07/24 05:30:12;;;;;;;;;0.00;0.00;;;;;21.93;57.26;100545.56;6148152;23;45233;-76
2021/07/24 05:32:37;;;;;;;;;0.00;0.00;;;;;21.93;56.72;100550.84;6146970;23;45308;-77
2021/07/24 05:35:03;;;;;;;;;0.00;0.00;;;;;21.98;56.21;100538.28;6147893;23;45311;-77
2021/07/24 05:37:28;;;;;;;;;0.00;0.00;;;;;21.84;56.54;100517.66;6148124;23;45325;-78
2021/07/24 05:39:54;;;;;;;;;0.00;0.00;;;;;22.03;56.35;100538.94;6147757;23;45232;-77
2021/07/24 05:42:19;;;;;;;;;0.00;0.00;;;;;21.93;56.39;100542.91;6146975;23;63719;-77
2021/07/24 05:44:44;;;;;;;;;0.00;0.00;;;;;21.88;56.36;100542.25;6147984;23;45311;-76
2021/07/24 05:47:10;;;;;;;;;0.00;0.00;;;;;21.96;55.84;100533.97;6147470;23;45408;-77
2021/07/24 05:49:37;;;;;;;;;0.00;0.00;;;;;22.02;56.19;100518.66;6147352;23;45237;-77
2021/07/24 05:52:08;;;;;;;;;0.00;0.00;;;;;22.12;55.74;100550.97;6147832;23;45938;-77
2021/07/24 05:54:33;;;;;;;;;0.00;0.00;;;;;22.01;56.15;100524.03;6145978;23;45375;-77
2021/07/24 05:56:58;;;;;;;;;0.00;0.00;;;;;22.28;55.31;100539.69;6148055;23;45347;-77
2021/07/24 05:59:24;;;;;;;;;0.00;0.00;;;;;22.38;54.97;100538.34;6147503;23;46896;-78
2021/07/24 06:01:49;;;;;;;;;0.00;0.00;;;;;22.27;55.04;100503.50;6147117;23;46416;-77
2021/07/24 06:04:14;;;;;;;;;0.00;0.00;;;;;22.39;55.37;100539.22;6147786;23;45390;-78
2021/07/24 06:06:40;;;;;;;;;0.00;0.00;;;;;22.40;54.51;100532.97;6149317;23;45346;-77
2021/07/24 06:09:05;;;;;;;;;0.00;0.00;;;;;22.45;54.62;100535.41;6149786;23;45644;-76
2021/07/24 06:11:32;;;;;;;;;0.00;0.00;;;;;22.33;54.57;100510.31;6150165;23;45958;-77
2021/07/24 06:13:58;;;;;;;;;0.00;0.00;;;;;22.31;55.06;100520.13;6147799;23;45280;-78
2021/07/24 06:16:24;;;;;;;;;0.00;0.00;;;;;22.26;54.57;100513.22;6149330;23;45538;-78
2021/07/24 06:18:49;;;;;;;;;0.00;0.00;;;;;22.36;55.22;100526.94;6150128;23;45594;-78
2021/07/24 06:21:16;;;;;;;;;0.00;0.00;;;;;22.35;55.41;100524.34;6148863;23;56285;-77
2021/07/24 06:23:41;;;;;;;;;0.00;0.00;;;;;22.50;55.17;100530.75;6149639;23;45315;-77
2021/07/24 06:26:07;;;;;;;;;0.50;0.00;;;;;22.36;54.63;100500.41;6149860;23;45315;-77
2021/07/24 06:28:32;;;;;;;;;1.00;0.00;;;;;22.53;55.25;100534.16;6149960;23;45280;-77
2021/07/24 06:31:01;;;;;;;;;0.00;0.00;;;;;22.57;54.98;100528.69;6147354;23;47891;-76
2021/07/24 06:33:26;;;;;;;;;0.00;0.00;;;;;22.35;55.25;100516.38;6147186;23;45188;-77
2021/07/24 06:35:51;;;;;;;;;0.00;0.00;;;;;22.27;55.38;100525.53;6149364;23;45471;-77
2021/07/24 06:38:17;;;;;;;;;0.00;0.00;;;;;22.19;55.63;100514.44;6149610;23;45242;-77
2021/07/24 06:40:42;;;;;;;;;0.00;0.00;;;;;22.23;55.24;100529.28;6148953;23;45304;-75
2021/07/24 06:43:07;;;;;;;;;0.00;0.00;;;;;22.05;55.68;100504.41;6149164;23;48846;-77
2021/07/24 06:45:33;;;;;;;;;0.00;0.00;;;;;22.11;54.82;100504.16;6148195;23;47446;-77
2021/07/24 06:47:58;;;;;;;;;0.00;0.00;;;;;22.19;54.67;100537.41;6149766;23;45252;-77
2021/07/24 06:50:24;;;;;;;;;0.00;0.00;;;;;22.10;54.91;100525.44;6148137;23;62759;-76
2021/07/24 06:52:50;;;;;;;;;0.00;0.00;;;;;22.08;54.24;100529.94;6148965;23;45225;-75
2021/07/24 06:55:16;;;;;;;;;0.00;0.00;;;;;22.02;55.12;100539.03;6149209;23;45351;-77
2021/07/24 06:57:41;;;;;;;;;0.00;0.00;;;;;22.04;55.01;100537.16;6147603;23;45539;-77
2021/07/24 07:00:07;;;;;;;;;0.00;0.00;;;;;22.06;54.47;100542.38;6148181;23;46495;-77
2021/07/24 07:02:32;;;;;;;;;0.00;0.00;;;;;21.93;54.27;100518.22;6148538;23;45447;-75
2021/07/24 07:04:57;;;;;;;;;0.00;0.00;;;;;21.89;55.01;100522.78;6149287;23;45370;-77
2021/07/24 07:07:22;;;;;;;;;0.50;0.50;;;;;21.99;54.90;100540.00;6148868;23;45451;-78
2021/07/24 07:09:48;;;;;;;;;0.25;0.25;;;;;21.97;54.45;100535.69;6147549;23;61075;-77
2021/07/24 07:12:13;;;;;;;;;0.00;0.00;;;;;21.98;54.79;100540.06;6148650;23;61275;-79
2021/07/24 07:14:38;;;;;;;;;0.00;0.00;;;;;21.97;53.94;100536.56;6148992;23;45364;-78
2021/07/24 07:17:04;;;;;;;;;0.00;0.00;;;;;21.81;54.19;100520.47;6148794;23;45303;-81
2021/07/24 07:19:29;;;;;;;;;0.75;0.00;;;;;21.94;54.56;100530.53;6148553;23;46032;-82
2021/07/24 07:21:54;;;;;;;;;0.00;0.00;;;;;21.84;54.26;100519.47;6148597;23;46797;-78
2021/07/24 07:24:20;;;;;;;;;0.00;0.00;;;;;22.05;53.75;100545.97;6148652;23;45507;-79
2021/07/24 07:26:46;;;;;;;;;0.00;0.00;;;;;22.09;53.99;100547.56;6148115;23;45323;-78
2021/07/24 07:29:11;;;;;;;;;0.00;0.00;;;;;22.08;53.80;100535.25;6148033;23;46462;-76
2021/07/24 07:31:37;;;;;;;;;0.00;0.00;;;;;22.29;53.81;100546.69;6148045;23;45312;-76
2021/07/24 07:34:03;;;;;;;;;0.00;0.00;;;;;22.40;53.50;100546.22;6148465;23;45370;-78
2021/07/24 07:36:29;;;;;;;;;0.00;0.00;;;;;22.48;53.17;100540.59;6148474;23;45479;-78
2021/07/24 07:38:54;;;;;;;;;0.00;0.00;;;;;22.47;53.00;100552.09;6148114;23;45332;-76
2021/07/24 07:41:20;;;;;;;;;1.50;0.00;;;;;22.48;53.18;100551.19;6147811;23;53103;-77
2021/07/24 07:43:46;;;;;;;;;0.00;0.00;;;;;22.51;52.95;100557.22;6148179;23;45623;-78
2021/07/24 07:46:11;;;;;;;;;0.00;0.00;;;;;22.59;52.45;100554.25;6148588;23;45473;-77
2021/07/24 07:48:37;;;;;;;;;1.25;0.00;;;;;22.66;51.98;100557.47;6148257;23;45957;-77
2021/07/24 07:51:03;;;;;;;;;2.00;0.00;;;;;22.64;52.55;100554.91;6147821;23;45283;-78
2021/07/24 07:53:28;;;;;;;;;0.00;0.00;;;;;22.59;52.40;100561.34;6149099;23;45307;-76
2021/07/24 07:55:54;;;;;;;;;0.25;0.25;;;;;22.58;52.39;100544.59;6148630;23;45237;-79
2021/07/24 07:58:19;;;;;;;;;0.00;0.00;;;;;22.54;52.56;100529.69;6147653;23;52999;-79
2021/07/24 08:00:45;;;;;;;;;0.00;0.00;;;;;22.72;51.78;100540.44;6148509;23;45365;-76
2021/07/24 08:03:10;;;;;;;;;0.00;0.00;;;;;22.62;51.99;100521.41;6147232;23;45304;-78
2021/07/24 08:05:35;;;;;;;;;0.00;0.00;;;;;22.67;52.12;100543.31;6148089;23;46262;-75
2021/07/24 08:08:01;;;;;;;;;0.00;0.00;;;;;22.67;52.70;100534.47;6147477;23;45756;-75
2021/07/24 08:10:26;;;;;;;;;0.00;0.00;;;;;22.73;51.97;100529.72;6147877;23;45767;-75
2021/07/24 08:12:52;;;;;;;;;0.00;0.00;;;;;22.73;51.86;100497.06;6147635;23;45308;-76
2021/07/24 08:15:18;;;;;;;;;0.00;0.00;;;;;23.01;52.07;100538.22;6149089;23;45248;-76
2021/07/24 08:17:43;;;;;;;;;0.00;0.00;;;;;23.06;51.72;100522.09;6147539;23;45982;-75
2021/07/24 08:20:10;;;;;;;;;0.00;0.00;;;;;23.19;50.79;100538.28;6147747;23;45311;-76
2021/07/24 08:22:35;;;;;;;;;0.00;0.00;;;;;22.84;51.08;100481.50;6147422;23;45456;-76
2021/07/24 08:25:01;;;;;;;;;0.00;0.00;;;;;23.18;50.24;100520.63;6147988;23;45635;-77
2021/07/24 08:27:27;;;;;;;;;0.00;0.00;;;;;23.20;50.20;100524.94;6147094;22;46009;-77
2021/07/24 08:29:53;;;;;;;;;0.00;0.00;;;;;23.35;50.62;100538.41;6147246;23;62087;-76
2021/07/24 08:32:18;;;;;;;;;0.50;0.25;;;;;23.17;50.39;100503.84;6147485;23;45483;-83
2021/07/24 08:34:47;;;;;;;;;0.00;0.00;;;;;23.29;49.69;100513.00;6147538;23;45546;-78
2021/07/24 08:37:13;;;;;;;;;0.25;0.00;;;;;23.50;49.64;100535.03;6145755;23;46216;-79
2021/07/24 08:39:38;;;;;;;;;2.50;1.00;;;;;23.52;49.67;100535.81;6147766;23;46476;-79
2021/07/24 08:42:04;;;;;;;;;0.00;0.00;;;;;23.25;49.30;100496.34;6152170;23;45261;-77
2021/07/24 08:44:29;;;;;;;;;0.75;0.00;;;;;23.50;48.84;100535.03;6147758;23;45368;-77
2021/07/24 08:46:55;;;;;;;;;0.00;0.00;;;;;23.51;49.04;100523.47;6147622;23;45945;-78
2021/07/24 08:49:20;;;;;;;;;0.00;0.00;;;;;23.50;49.10;100503.16;6147229;23;45360;-78
2021/07/24 08:51:49;;;;;;;;;0.00;0.00;;;;;23.77;48.84;100515.97;6147884;23;45334;-79
2021/07/24 08:54:14;;;;;;;;;0.25;0.25;;;;;23.78;48.53;100511.53;6147634;23;45308;-80
2021/07/24 08:56:45;;;;;;;;;0.00;0.00;;;;;23.96;48.33;100509.75;6147228;23;52619;-79
2021/07/24 08:59:14;;;;;;;;;0.00;0.00;;;;;23.96;48.85;100499.09;6147952;23;45379;-80
2021/07/24 09:01:40;;;;;;;;;1.50;0.00;;;;;24.14;47.95;100518.56;6146127;23;45328;-79
2021/07/24 09:04:07;;;;;;;;;0.00;0.00;;;;;23.96;47.84;100512.41;6147145;23;45276;-80
2021/07/24 09:06:32;;;;;;;;;0.50;0.50;;;;;23.99;47.98;100519.34;6147423;23;45338;-80
2021/07/24 09:08:58;;;;;;;;;0.00;0.00;;;;;23.90;47.89;100502.06;6147871;23;45316;-78
2021/07/24 09:11:24;;;;;;;;;0.50;0.00;;;;;24.19;47.79;100522.81;6147795;23;45381;-79
2021/07/24 09:13:49;;;;;;;;;0.00;0.00;;;;;23.91;47.82;100470.09;6148447;23;45232;-79
2021/07/24 09:16:15;;;;;;;;;0.00;0.00;;;;;24.29;47.85;100513.41;6147369;23;46061;-78
2021/07/24 09:18:41;;;;;;;;;0.00;0.00;;;;;24.40;47.74;100518.13;6148097;23;45362;-77
2021/07/24 09:21:07;;;;;;;;;0.00;0.00;;;;;24.52;47.24;100522.81;6147949;23;45338;-79
2021/07/24 09:23:36;;;;;;;;;0.00;0.00;;;;;24.41;47.05;100507.41;6148140;23;45289;-78
2021/07/24 09:26:04;;;;;;;;;0.00;0.00;;;;;24.54;47.31;100526.22;6146979;23;45276;-78
2021/07/24 09:28:30;;;;;;;;;0.00;0.00;;;;;24.75;47.01;100533.16;6145760;23;45312;-78
2021/07/24 09:30:55;;;;;;;;;0.00;0.00;;;;;24.72;46.86;100512.91;6148187;23;45343;-78
2021/07/24 09:33:21;;;;;;;;;0.00;0.00;;;;;24.66;46.48;100505.25;6146240;23;45470;-78
2021/07/24 09:35:51;;;;;;;;;0.00;0.00;;;;;24.68;46.47;100514.84;6147789;23;45899;-77
2021/07/24 09:38:26;;;;;;;;;1.00;0.00;;;;;24.82;46.37;100523.88;6147935;23;45543;-78
2021/07/24 09:40:52;;;;;;;;;0.00;0.00;;;;;24.80;46.19;100508.00;6146016;23;45256;-77
2021/07/24 09:43:30;;;;;;;;;0.00;0.00;;;;;24.92;46.49;100519.81;6147981;23;45264;-78
2021/07/24 09:46:14;;;;;;;;;0.00;0.00;;;;;24.78;46.18;100509.03;6147671;23;45417;-77
2021/07/24 09:49:09;;;;;;;;;0.00;0.00;;;;;24.84;45.81;100523.81;6147848;23;45317;-77
2021/07/24 09:51:43;;;;;;;;;0.00;0.00;;;;;24.88;45.62;100522.72;6056746;23;45450;-78
2021/07/24 09:54:27;;;;;;;;;0.00;0.00;;;;;24.81;45.61;100527.50;6056252;23;45284;-78
2021/07/24 09:56:56;;;;;;;;;0.00;0.00;;;;;24.81;46.13;100540.81;6055965;23;48144;-77
2021/07/24 09:59:24;;;;;;;;;0.00;0.00;;;;;24.91;45.61;100541.19;6056725;23;45343;-77
2021/07/24 10:02:05;;;;;;;;;0.00;0.00;;;;;25.05;45.77;100541.25;6056317;23;45468;-79
2021/07/24 10:04:33;;;;;;;;;0.00;0.00;;;;;25.02;46.00;100519.28;6057294;23;45438;-78
2021/07/24 10:07:04;;;;;;;;;0.00;0.00;;;;;25.21;45.63;100539.56;6032461;23;45939;-77
2021/07/24 10:09:51;;;;;;;;;0.00;0.00;;;;;25.25;44.95;100547.28;6055674;23;45421;-79
2021/07/24 10:12:16;;;;;;;;;0.00;0.00;;;;;25.15;44.26;100530.94;6056548;23;45372;-78
2021/07/24 10:14:42;;;;;;;;;0.00;0.00;;;;;25.21;44.21;100547.53;6056898;23;45432;-78
2021/07/24 10:17:07;;;;;;;;;0.00;0.00;;;;;25.18;44.32;100530.78;6056303;23;46425;-78
2021/07/24 10:19:33;;;;;;;;;0.00;0.00;;;;;25.27;43.84;100544.53;6055882;23;45396;-77
2021/07/24 10:22:00;;;;;;;;;0.00;0.00;;;;;25.32;44.13;100552.28;6055786;23;45355;-78
2021/07/24 10:24:26;;;;;;;;;0.00;0.00;;;;;25.36;44.04;100549.31;6056683;23;45355;-78
2021/07/24 10:27:01;;;;;;;;;0.00;0.00;;;;;25.26;44.12;100543.66;6056343;23;45858;-78
2021/07/24 10:29:44;;;;;;;;;0.00;0.00;;;;;25.23;44.62;100543.84;6135191;23;45439;-77
2021/07/24 10:32:11;;;;;;;;;0.00;0.00;;;;;25.33;44.09;100549.53;6147575;23;45340;-77
2021/07/24 10:34:47;;;;;;;;;0.00;0.00;;;;;25.20;44.66;100537.84;6147932;23;45374;-78
2021/07/24 10:37:33;;;;;;;;;0.00;0.00;;;;;25.34;44.22;100547.69;6147105;23;46191;-78
2021/07/24 10:40:21;;;;;;;;;0.00;0.00;;;;;25.33;43.92;100540.66;6147404;23;45330;-78
2021/07/24 10:42:51;;;;;;;;;0.00;0.00;;;;;25.28;43.98;100517.81;6147543;23;45315;-78
2021/07/24 10:45:31;;;;;;;;;0.00;0.00;;;;;25.38;43.91;100523.47;6145746;23;45289;-78
2021/07/24 10:48:21;;;;;;;;;0.00;0.00;;;;;25.36;43.64;100527.16;6147433;23;45498;-78
2021/07/24 10:50:49;;;;;;;;;0.00;0.00;;;;;25.33;43.87;100524.69;6147451;23;45221;-78
2021/07/24 10:53:15;;;;;;;;;0.00;0.00;;;;;25.15;43.51;100498.16;6149511;23;45336;-78
2021/07/24 10:55:41;;;;;;;;;0.00;0.00;;;;;25.25;43.48;100515.31;6147224;23;45543;-78
2021/07/24 10:58:06;;;;;;;;;0.00;0.00;;;;;25.22;43.44;100498.66;6148724;23;45339;-78
2021/07/24 11:00:34;;;;;;;;;0.00;0.00;;;;;25.40;43.08;100512.72;6146585;23;45902;-78
2021/07/24 11:03:00;;;;;;;;;0.00;0.00;;;;;25.60;43.34;100513.41;6148813;23;45323;-78
2021/07/24 11:05:32;;;;;;;;;0.00;0.00;;;;;25.55;42.37;100509.16;6149155;23;45315;-78
2021/07/24 11:07:58;;;;;;;;;0.00;0.00;;;;;25.64;41.57;100514.94;6149160;23;45318;-77
2021/07/24 11:10:25;;;;;;;;;0.00;0.00;;;;;25.62;42.00;100511.50;6148603;23;45319;-77
2021/07/24 11:12:51;;;;;;;;;0.00;0.00;;;;;25.58;42.17;100493.94;6148933;23;45287;-77
2021/07/24 11:15:21;;;;;;;;;0.00;0.00;;;;;25.81;42.62;100509.47;6149029;23;45332;-78
2021/07/24 11:18:22;;;;;;;;;0.00;0.00;;;;;26.03;42.22;100510.00;6148292;23;45406;-78
2021/07/24 11:20:48;;;;;;;;;0.00;0.00;;;;;26.05;42.32;100535.59;6148113;23;45185;-80
2021/07/24 11:23:14;;;;;;;;;0.00;0.00;;;;;25.88;41.82;100515.28;6148984;23;45197;-77
2021/07/24 11:25:40;;;;;;;;;0.00;0.00;;;;;25.83;41.79;100519.16;6147414;23;45418;-77
2021/07/24 11:28:07;;;;;;;;;3.00;0.00;;;;;25.93;42.02;100529.19;6148914;23;45379;-80
2021/07/24 11:30:32;;;;;;;;;0.00;0.00;;;;;26.00;41.74;100529.69;6148721;23;45241;-79